Airfield :
LOGIN :

Register | Disclaimer

   EN    FR    IT 

 










Legend :    VFR   Marginal VFR   IFR   Intensive IFR   Very Intensive IFR
Visi :
Ceiling :
>= 8 km
>= 3000ft
5 to 8 km
1000 to 3000 ft
1500m to 5 km
500 to 1000 ft
800 to 1500m
200 to 500 ft
< 800m
< 200 ft
Symbols :   Thunderstorms  Fog  Heavy snow  Heavy precipitations  Wind > 20 kt
SIGMETs :     Misc.  Thunderstorms  Icing  Turbulence  Mountain Waves  Volcanic Ashes






- Airport Elevation : 194 ft
- IATA code : LME


LFRM - Le Mans

CURRENT METAR :
  • 172000Z AUTO 19005KT 160V220 CAVOK 14/12 Q1010 TEMPO BKN020TCU

EXPIRED METARs :
  • 171930Z AUTO 20004KT CAVOK 14/12 Q1010 TEMPO BKN020TCU
  • 171900Z AUTO 20006KT 180V240 CAVOK 14/12 Q1010 TEMPO BKN020TCU
  • 171830Z AUTO 21006KT 170V230 CAVOK 14/12 Q1010 TEMPO BKN020TCU
  • 171800Z AUTO 22007KT 180V250 9999 FEW025 15/13 Q1010 TEMPO BKN020TCU
  • 171730Z AUTO 22008G19KT 180V260 9999 FEW029/// SCT036/// BKN048/// ///TCU 15/13 Q1010 NOSIG

TAF TAF LFRM
Valid from the 17 at 18:00 until the 18 at 18:00 UTC


171700Z 1718/1818 22010KT 9999 SCT030
TEMPO 1718/1724 -SHRA BKN020TCU
TEMPO 1800/1812 24015G30KT 3000 SHRA BKN020TCU SCT040CB
PROB40
TEMPO 1803/1807 2000 TSRA BKN020 BKN040CB
TEMPO 1812/1818 -SHRA



MET'MAP, your aeronautical weather chart ! - Copyright ORBIFLY December 2007 - Disclaimer

ORBIFLY MET'MAP TEAM :

Programming & Development : Alexandra Zaïnal
Concept & Development : Baudouin d'Aumeries
Co-Development & Prog : Marc-Olivier Méhu
Technical & hardware support : Manuel Goepfert

Contact : metmap@orbifly.com




SOURCES & CREDITS :

   NOAA